Time,TemperatureF,DewpointF,PressureIn,WindDirection,WindDirectionDegrees,WindSpeedMPH,WindSpeedGustMPH,Humidity,HourlyPrecipIn,Conditions,Clouds,dailyrainin,SolarRadiationWatts/m^2,SoftwareType,DateUTC
2013-11-06 00:03:00,57.0,48.0,-100.00,ENE,61,2.0,7.0,71,0.00,,,0.00,0.000000,,2013-11-06 06:03:00,
2013-11-06 00:13:00,57.0,48.0,-100.00,ENE,61,2.0,7.0,71,0.00,,,0.00,0.000000,,2013-11-06 06:13:00,
2013-11-06 00:42:00,56.0,48.0,-100.00,NNE,29,2.0,8.0,74,0.00,,,0.00,0.000000,,2013-11-06 06:42:00,
2013-11-06 00:52:00,56.0,48.0,-100.00,NNE,29,2.0,8.0,74,0.00,,,0.00,0.000000,,2013-11-06 06:52:00,
2013-11-06 01:02:00,56.0,48.0,-100.00,NNE,29,2.0,8.0,74,0.00,,,0.00,0.000000,,2013-11-06 07:02:00,
2013-11-06 01:12:00,56.0,48.0,-100.00,NNE,29,2.0,8.0,74,0.00,,,0.00,0.000000,,2013-11-06 07:12:00,
2013-11-06 01:42:00,55.0,49.0,-100.00,NE,34,0.0,6.0,79,0.00,,,0.00,0.000000,,2013-11-06 07:42:00,
2013-11-06 01:52:00,55.0,49.0,-100.00,NE,34,0.0,6.0,79,0.00,,,0.00,0.000000,,2013-11-06 07:52:00,
2013-11-06 02:02:00,55.0,49.0,-100.00,NE,34,0.0,6.0,79,0.00,,,0.00,0.000000,,2013-11-06 08:02:00,
2013-11-06 02:12:00,55.0,49.0,-100.00,NE,34,0.0,6.0,79,0.00,,,0.00,0.000000,,2013-11-06 08:12:00,
2013-11-06 02:42:00,56.0,50.0,-100.00,NE,38,1.0,5.0,79,0.00,,,0.00,0.000000,,2013-11-06 08:42:00,
2013-11-06 02:52:00,56.0,50.0,-100.00,NE,38,1.0,5.0,79,0.00,,,0.00,0.000000,,2013-11-06 08:52:00,
2013-11-06 03:02:00,56.0,50.0,-100.00,NE,38,1.0,5.0,79,0.00,,,0.00,0.000000,,2013-11-06 09:02:00,
2013-11-06 03:12:00,56.0,50.0,-100.00,NE,38,1.0,5.0,79,0.00,,,0.00,0.000000,,2013-11-06 09:12:00,
2013-11-06 03:43:00,56.0,50.0,-100.00,ENE,68,0.0,6.0,81,0.00,,,0.00,0.000000,,2013-11-06 09:43:00,
2013-11-06 03:53:00,56.0,50.0,-100.00,ENE,68,0.0,6.0,81,0.00,,,0.00,0.000000,,2013-11-06 09:53:00,
2013-11-06 04:03:00,56.0,50.0,-100.00,ENE,68,0.0,6.0,81,0.00,,,0.00,0.000000,,2013-11-06 10:03:00,
2013-11-06 04:12:00,56.0,50.0,-100.00,ENE,68,0.0,6.0,81,0.00,,,0.00,0.000000,,2013-11-06 10:12:00,
2013-11-06 04:42:00,55.0,50.0,-100.00,ENE,76,2.0,7.0,83,0.00,,,0.00,0.000000,,2013-11-06 10:42:00,
2013-11-06 04:53:00,55.0,50.0,-100.00,ENE,76,2.0,7.0,83,0.00,,,0.00,0.000000,,2013-11-06 10:53:00,
2013-11-06 05:02:00,55.0,50.0,-100.00,ENE,76,2.0,7.0,83,0.00,,,0.00,0.000000,,2013-11-06 11:02:00,
2013-11-06 05:12:00,55.0,50.0,-100.00,ENE,76,2.0,7.0,83,0.00,,,0.00,0.000000,,2013-11-06 11:12:00,
2013-11-06 05:42:00,56.0,52.0,-100.00,ENE,65,2.0,7.0,86,0.00,,,0.00,0.000000,,2013-11-06 11:42:00,
2013-11-06 05:52:00,56.0,52.0,-100.00,ENE,65,2.0,7.0,86,0.00,,,0.00,0.000000,,2013-11-06 11:52:00,
2013-11-06 06:02:00,56.0,52.0,-100.00,ENE,65,2.0,7.0,86,0.00,,,0.00,0.000000,,2013-11-06 12:02:00,
2013-11-06 06:12:00,56.0,52.0,-100.00,ENE,65,2.0,7.0,86,0.00,,,0.00,0.000000,,2013-11-06 12:12:00,
2013-11-06 06:42:00,57.0,54.0,-100.00,East,86,2.0,6.0,89,0.00,,,0.00,1.000000,,2013-11-06 12:42:00,
2013-11-06 06:52:00,57.0,54.0,-100.00,East,86,2.0,6.0,89,0.00,,,0.00,1.000000,,2013-11-06 12:52:00,
2013-11-06 07:02:00,57.0,54.0,-100.00,East,86,2.0,6.0,89,0.00,,,0.00,1.000000,,2013-11-06 13:02:00,
2013-11-06 07:12:00,57.0,54.0,-100.00,East,86,2.0,6.0,89,0.00,,,0.00,1.000000,,2013-11-06 13:12:00,
2013-11-06 07:42:00,59.0,56.0,-100.00,East,90,5.0,9.0,90,0.00,,,0.00,35.000000,,2013-11-06 13:42:00,
2013-11-06 07:52:00,59.0,56.0,-100.00,East,90,5.0,9.0,90,0.00,,,0.00,35.000000,,2013-11-06 13:52:00,
2013-11-06 08:02:00,59.0,56.0,-100.00,East,90,5.0,9.0,90,0.00,,,0.00,35.000000,,2013-11-06 14:02:00,
2013-11-06 08:11:00,59.0,56.0,-100.00,East,90,5.0,9.0,90,0.00,,,0.00,35.000000,,2013-11-06 14:11:00,
2013-11-06 08:42:00,63.0,59.0,-100.00,ESE,103,5.0,11.0,88,0.00,,,0.00,110.000000,,2013-11-06 14:42:00,
2013-11-06 08:52:00,63.0,59.0,-100.00,ESE,103,5.0,11.0,88,0.00,,,0.00,110.000000,,2013-11-06 14:52:00,
2013-11-06 09:02:00,63.0,59.0,-100.00,ESE,103,5.0,11.0,88,0.00,,,0.00,110.000000,,2013-11-06 15:02:00,
2013-11-06 09:11:00,63.0,59.0,-100.00,ESE,103,5.0,11.0,88,0.00,,,0.00,110.000000,,2013-11-06 15:11:00,
2013-11-06 09:43:00,66.0,60.0,-100.00,ESE,121,5.0,13.0,81,0.00,,,0.00,233.000000,,2013-11-06 15:43:00,
2013-11-06 09:54:00,66.0,60.0,-100.00,ESE,121,5.0,13.0,81,0.00,,,0.00,233.000000,,2013-11-06 15:54:00,
2013-11-06 10:03:00,66.0,60.0,-100.00,ESE,121,5.0,13.0,81,0.00,,,0.00,233.000000,,2013-11-06 16:03:00,
2013-11-06 10:12:00,66.0,60.0,-100.00,ESE,121,5.0,13.0,81,0.00,,,0.00,233.000000,,2013-11-06 16:12:00,
2013-11-06 10:43:00,73.0,61.0,-100.00,SE,126,5.0,13.0,67,0.00,,,0.00,530.000000,,2013-11-06 16:43:00,
2013-11-06 10:53:00,73.0,61.0,-100.00,SE,126,5.0,13.0,67,0.00,,,0.00,530.000000,,2013-11-06 16:53:00,
2013-11-06 11:02:00,73.0,61.0,-100.00,SE,126,5.0,13.0,67,0.00,,,0.00,530.000000,,2013-11-06 17:02:00,
2013-11-06 11:13:00,73.0,61.0,-100.00,SE,126,5.0,13.0,67,0.00,,,0.00,530.000000,,2013-11-06 17:13:00,
2013-11-06 11:43:00,76.0,63.0,-100.00,ESE,117,3.0,10.0,64,0.00,,,0.00,568.000000,,2013-11-06 17:43:00,
2013-11-06 11:52:00,76.0,63.0,-100.00,ESE,117,3.0,10.0,64,0.00,,,0.00,568.000000,,2013-11-06 17:52:00,
2013-11-06 12:02:00,76.0,63.0,-100.00,ESE,117,3.0,10.0,64,0.00,,,0.00,568.000000,,2013-11-06 18:02:00,
2013-11-06 12:12:00,76.0,63.0,-100.00,ESE,117,3.0,10.0,64,0.00,,,0.00,568.000000,,2013-11-06 18:12:00,
2013-11-06 12:42:00,77.0,63.0,-100.00,SSE,158,2.0,10.0,63,0.00,,,0.00,501.000000,,2013-11-06 18:42:00,
2013-11-06 12:52:00,77.0,63.0,-100.00,SSE,158,2.0,10.0,63,0.00,,,0.00,501.000000,,2013-11-06 18:52:00,
2013-11-06 13:01:00,77.0,63.0,-100.00,SSE,158,2.0,10.0,63,0.00,,,0.00,501.000000,,2013-11-06 19:01:00,
2013-11-06 13:11:00,77.0,63.0,-100.00,SSE,158,2.0,10.0,63,0.00,,,0.00,501.000000,,2013-11-06 19:11:00,
2013-11-06 13:42:00,79.0,63.0,-100.00,South,170,2.0,8.0,59,0.00,,,0.00,378.000000,,2013-11-06 19:42:00,
2013-11-06 13:52:00,79.0,63.0,-100.00,South,170,2.0,8.0,59,0.00,,,0.00,378.000000,,2013-11-06 19:52:00,
2013-11-06 14:02:00,79.0,63.0,-100.00,South,170,2.0,8.0,59,0.00,,,0.00,378.000000,,2013-11-06 20:02:00,
2013-11-06 14:12:00,79.0,63.0,-100.00,South,170,2.0,8.0,59,0.00,,,0.00,378.000000,,2013-11-06 20:12:00,
2013-11-06 14:42:00,78.0,64.0,-100.00,South,179,3.0,6.0,63,0.00,,,0.00,375.000000,,2013-11-06 20:42:00,
2013-11-06 14:52:00,78.0,64.0,-100.00,South,179,3.0,6.0,63,0.00,,,0.00,375.000000,,2013-11-06 20:52:00,
2013-11-06 15:02:00,78.0,64.0,-100.00,South,179,3.0,6.0,63,0.00,,,0.00,375.000000,,2013-11-06 21:02:00,
2013-11-06 15:12:00,78.0,64.0,-100.00,South,179,3.0,6.0,63,0.00,,,0.00,375.000000,,2013-11-06 21:12:00,
2013-11-06 15:44:00,77.0,64.0,-100.00,ESE,118,0.0,6.0,65,0.00,,,0.00,163.000000,,2013-11-06 21:44:00,
2013-11-06 15:54:00,77.0,64.0,-100.00,ESE,118,0.0,6.0,65,0.00,,,0.00,163.000000,,2013-11-06 21:54:00,
2013-11-06 16:04:00,77.0,64.0,-100.00,ESE,118,0.0,6.0,65,0.00,,,0.00,163.000000,,2013-11-06 22:04:00,
2013-11-06 16:14:00,77.0,64.0,-100.00,ESE,118,0.0,6.0,65,0.00,,,0.00,163.000000,,2013-11-06 22:14:00,
2013-11-06 16:43:00,76.0,65.0,-100.00,ENE,72,0.0,0.0,70,0.00,,,0.00,80.000000,,2013-11-06 22:43:00,
2013-11-06 16:53:00,76.0,65.0,-100.00,ENE,72,0.0,0.0,70,0.00,,,0.00,80.000000,,2013-11-06 22:53:00,
2013-11-06 17:02:00,76.0,65.0,-100.00,ENE,72,0.0,0.0,70,0.00,,,0.00,80.000000,,2013-11-06 23:02:00,
2013-11-06 17:13:00,76.0,65.0,-100.00,ENE,72,0.0,0.0,70,0.00,,,0.00,80.000000,,2013-11-06 23:13:00,
2013-11-06 17:42:00,71.0,65.0,-100.00,NNW,347,0.0,0.0,82,0.00,,,0.00,17.000000,,2013-11-06 23:42:00,
2013-11-06 17:53:00,71.0,65.0,-100.00,NNW,347,0.0,0.0,82,0.00,,,0.00,17.000000,,2013-11-06 23:53:00,
2013-11-06 18:02:00,71.0,65.0,-100.00,NNW,347,0.0,0.0,82,0.00,,,0.00,17.000000,,2013-11-07 00:02:00,
2013-11-06 18:12:00,71.0,65.0,-100.00,NNW,347,0.0,0.0,82,0.00,,,0.00,17.000000,,2013-11-07 00:12:00,
2013-11-06 18:42:00,70.0,65.0,-100.00,North,353,0.0,0.0,84,0.00,,,0.00,0.000000,,2013-11-07 00:42:00,
2013-11-06 18:52:00,70.0,65.0,-100.00,North,353,0.0,0.0,84,0.00,,,0.00,0.000000,,2013-11-07 00:52:00,
2013-11-06 19:02:00,70.0,65.0,-100.00,North,353,0.0,0.0,84,0.00,,,0.00,0.000000,,2013-11-07 01:02:00,
2013-11-06 19:11:00,70.0,65.0,-100.00,North,353,0.0,0.0,84,0.00,,,0.00,0.000000,,2013-11-07 01:11:00,
2013-11-06 19:42:00,69.0,66.0,-100.00,SE,140,0.0,0.0,89,0.00,,,0.00,0.000000,,2013-11-07 01:42:00,
2013-11-06 19:52:00,69.0,66.0,-100.00,SE,140,0.0,0.0,89,0.00,,,0.00,0.000000,,2013-11-07 01:52:00,
2013-11-06 20:01:00,69.0,66.0,-100.00,SE,140,0.0,0.0,89,0.00,,,0.00,0.000000,,2013-11-07 02:01:00,
2013-11-06 20:12:00,69.0,66.0,-100.00,SE,140,0.0,0.0,89,0.00,,,0.00,0.000000,,2013-11-07 02:12:00,
2013-11-06 20:53:00,68.0,66.0,-100.00,SSE,164,0.0,0.0,94,0.00,,,0.00,0.000000,,2013-11-07 02:53:00,
2013-11-06 21:02:00,68.0,66.0,-100.00,SSE,164,0.0,0.0,94,0.00,,,0.00,0.000000,,2013-11-07 03:02:00,
2013-11-06 21:12:00,68.0,66.0,-100.00,SSE,164,0.0,0.0,94,0.00,,,0.00,0.000000,,2013-11-07 03:12:00,
2013-11-06 21:44:00,67.0,66.0,-100.00,South,170,0.0,0.0,95,0.00,,,0.00,0.000000,,2013-11-07 03:44:00,
2013-11-06 21:55:00,67.0,66.0,-100.00,South,170,0.0,0.0,95,0.00,,,0.00,0.000000,,2013-11-07 03:55:00,
2013-11-06 22:04:00,67.0,66.0,-100.00,South,170,0.0,0.0,95,0.00,,,0.00,0.000000,,2013-11-07 04:04:00,
2013-11-06 22:13:00,67.0,66.0,-100.00,South,170,0.0,0.0,95,0.00,,,0.00,0.000000,,2013-11-07 04:13:00,
2013-11-06 22:43:00,66.0,64.0,-100.00,SSE,162,0.0,7.0,93,0.00,,,0.00,0.000000,,2013-11-07 04:43:00,
2013-11-06 22:53:00,66.0,64.0,-100.00,SSE,162,0.0,7.0,93,0.00,,,0.00,0.000000,,2013-11-07 04:53:00,
2013-11-06 23:03:00,66.0,64.0,-100.00,SSE,162,0.0,7.0,93,0.00,,,0.00,0.000000,,2013-11-07 05:03:00,
2013-11-06 23:13:00,66.0,64.0,-100.00,SSE,162,0.0,7.0,93,0.00,,,0.00,0.000000,,2013-11-07 05:13:00,
2013-11-06 23:44:00,65.0,64.0,-100.00,SE,132,0.0,0.0,97,0.00,,,0.00,0.000000,,2013-11-07 05:44:00,
2013-11-06 23:54:00,65.0,64.0,-100.00,SE,132,0.0,0.0,97,0.00,,,0.00,0.000000,,2013-11-07 05:54:00,